sensor_id;sensor_type;location;lat;lon;timestamp;P1;durP1;ratioP1;P2;durP2;ratioP2
5499;SDS011;2772;42.700;23.304;2022-12-05T00:01:10;11.10;;;7.43;;
5499;SDS011;2772;42.700;23.304;2022-12-05T00:03:41;8.47;;;6.77;;
5499;SDS011;2772;42.700;23.304;2022-12-05T00:06:08;15.83;;;9.07;;
5499;SDS011;2772;42.700;23.304;2022-12-05T00:08:34;10.63;;;7.87;;
5499;SDS011;2772;42.700;23.304;2022-12-05T00:11:01;11.87;;;7.70;;
5499;SDS011;2772;42.700;23.304;2022-12-05T00:13:28;13.93;;;8.70;;
5499;SDS011;2772;42.700;23.304;2022-12-05T00:15:55;14.90;;;9.27;;
5499;SDS011;2772;42.700;23.304;2022-12-05T00:18:21;14.10;;;8.20;;
5499;SDS011;2772;42.700;23.304;2022-12-05T00:20:50;26.57;;;9.27;;
5499;SDS011;2772;42.700;23.304;2022-12-05T00:23:16;15.90;;;9.60;;
5499;SDS011;2772;42.700;23.304;2022-12-05T00:25:43;13.50;;;8.47;;
5499;SDS011;2772;42.700;23.304;2022-12-05T00:28:10;19.77;;;10.90;;
5499;SDS011;2772;42.700;23.304;2022-12-05T00:30:38;14.20;;;8.80;;
5499;SDS011;2772;42.700;23.304;2022-12-05T00:33:05;14.57;;;8.07;;
5499;SDS011;2772;42.700;23.304;2022-12-05T00:35:32;15.37;;;9.50;;
5499;SDS011;2772;42.700;23.304;2022-12-05T00:38:01;19.17;;;10.03;;
5499;SDS011;2772;42.700;23.304;2022-12-05T00:40:28;12.17;;;7.60;;
5499;SDS011;2772;42.700;23.304;2022-12-05T00:42:54;13.27;;;8.17;;
5499;SDS011;2772;42.700;23.304;2022-12-05T00:45:21;15.37;;;8.83;;
5499;SDS011;2772;42.700;23.304;2022-12-05T00:47:48;16.20;;;8.50;;
5499;SDS011;2772;42.700;23.304;2022-12-05T00:50:15;11.57;;;8.10;;
5499;SDS011;2772;42.700;23.304;2022-12-05T00:52:41;11.03;;;7.87;;
5499;SDS011;2772;42.700;23.304;2022-12-05T00:55:10;14.50;;;8.40;;
5499;SDS011;2772;42.700;23.304;2022-12-05T00:57:36;12.07;;;8.43;;
5499;SDS011;2772;42.700;23.304;2022-12-05T01:00:04;16.17;;;7.73;;
5499;SDS011;2772;42.700;23.304;2022-12-05T01:02:32;14.47;;;9.10;;
5499;SDS011;2772;42.700;23.304;2022-12-05T01:04:58;11.70;;;7.70;;
5499;SDS011;2772;42.700;23.304;2022-12-05T01:07:25;10.97;;;7.70;;
5499;SDS011;2772;42.700;23.304;2022-12-05T01:09:52;14.43;;;9.03;;
5499;SDS011;2772;42.700;23.304;2022-12-05T01:12:20;10.93;;;7.33;;
5499;SDS011;2772;42.700;23.304;2022-12-05T01:14:47;12.77;;;8.17;;
5499;SDS011;2772;42.700;23.304;2022-12-05T01:17:14;10.17;;;7.90;;
5499;SDS011;2772;42.700;23.304;2022-12-05T01:19:40;14.90;;;7.40;;
5499;SDS011;2772;42.700;23.304;2022-12-05T01:22:07;11.23;;;7.40;;
5499;SDS011;2772;42.700;23.304;2022-12-05T01:24:34;12.73;;;8.47;;
5499;SDS011;2772;42.700;23.304;2022-12-05T01:27:01;11.67;;;7.47;;
5499;SDS011;2772;42.700;23.304;2022-12-05T01:29:29;11.40;;;7.50;;
5499;SDS011;2772;42.700;23.304;2022-12-05T01:31:56;10.93;;;7.30;;
5499;SDS011;2772;42.700;23.304;2022-12-05T01:34:23;10.30;;;6.70;;
5499;SDS011;2772;42.700;23.304;2022-12-05T01:36:49;11.00;;;7.30;;
5499;SDS011;2772;42.700;23.304;2022-12-05T01:39:16;10.13;;;7.43;;
5499;SDS011;2772;42.700;23.304;2022-12-05T01:41:44;12.53;;;7.80;;
5499;SDS011;2772;42.700;23.304;2022-12-05T01:47:18;11.40;;;7.23;;
5499;SDS011;2772;42.700;23.304;2022-12-05T01:49:47;10.90;;;7.70;;
5499;SDS011;2772;42.700;23.304;2022-12-05T01:52:15;10.77;;;7.13;;
5499;SDS011;2772;42.700;23.304;2022-12-05T01:54:44;13.10;;;7.90;;
5499;SDS011;2772;42.700;23.304;2022-12-05T01:57:13;11.10;;;7.40;;
5499;SDS011;2772;42.700;23.304;2022-12-05T01:59:41;11.80;;;8.30;;
5499;SDS011;2772;42.700;23.304;2022-12-05T02:02:12;11.90;;;8.20;;
5499;SDS011;2772;42.700;23.304;2022-12-05T02:04:42;17.10;;;8.20;;
5499;SDS011;2772;42.700;23.304;2022-12-05T02:07:16;18.17;;;7.13;;
5499;SDS011;2772;42.700;23.304;2022-12-05T02:09:44;13.70;;;8.03;;
5499;SDS011;2772;42.700;23.304;2022-12-05T02:12:15;14.30;;;8.40;;
5499;SDS011;2772;42.700;23.304;2022-12-05T02:14:46;14.33;;;8.03;;
5499;SDS011;2772;42.700;23.304;2022-12-05T02:17:22;10.23;;;7.17;;
5499;SDS011;2772;42.700;23.304;2022-12-05T02:20:02;17.07;;;8.10;;
5499;SDS011;2772;42.700;23.304;2022-12-05T02:22:47;13.53;;;8.53;;
5499;SDS011;2772;42.700;23.304;2022-12-05T02:31:37;12.10;;;6.90;;
5499;SDS011;2772;42.700;23.304;2022-12-05T02:34:14;13.07;;;7.57;;
5499;SDS011;2772;42.700;23.304;2022-12-05T02:36:46;13.60;;;7.73;;
5499;SDS011;2772;42.700;23.304;2022-12-05T02:39:18;16.00;;;7.97;;
5499;SDS011;2772;42.700;23.304;2022-12-05T02:41:51;11.83;;;8.40;;
5499;SDS011;2772;42.700;23.304;2022-12-05T02:44:27;11.17;;;7.17;;
5499;SDS011;2772;42.700;23.304;2022-12-05T02:47:00;10.37;;;6.63;;
5499;SDS011;2772;42.700;23.304;2022-12-05T02:49:29;9.57;;;6.90;;
5499;SDS011;2772;42.700;23.304;2022-12-05T02:51:59;9.93;;;6.67;;
5499;SDS011;2772;42.700;23.304;2022-12-05T02:54:30;13.67;;;7.10;;
5499;SDS011;2772;42.700;23.304;2022-12-05T02:56:59;12.67;;;7.10;;
5499;SDS011;2772;42.700;23.304;2022-12-05T02:59:26;12.70;;;8.00;;
5499;SDS011;2772;42.700;23.304;2022-12-05T03:01:54;13.33;;;7.50;;
5499;SDS011;2772;42.700;23.304;2022-12-05T03:04:22;13.03;;;7.57;;
5499;SDS011;2772;42.700;23.304;2022-12-05T03:06:52;11.00;;;7.77;;
5499;SDS011;2772;42.700;23.304;2022-12-05T03:09:24;15.40;;;8.10;;
5499;SDS011;2772;42.700;23.304;2022-12-05T03:12:01;10.50;;;7.37;;
5499;SDS011;2772;42.700;23.304;2022-12-05T03:14:34;13.17;;;6.77;;
5499;SDS011;2772;42.700;23.304;2022-12-05T03:17:08;10.30;;;7.60;;
5499;SDS011;2772;42.700;23.304;2022-12-05T03:19:42;9.80;;;6.50;;
5499;SDS011;2772;42.700;23.304;2022-12-05T03:22:13;11.00;;;8.00;;
5499;SDS011;2772;42.700;23.304;2022-12-05T03:24:44;11.67;;;7.40;;
5499;SDS011;2772;42.700;23.304;2022-12-05T03:27:12;9.30;;;6.83;;
5499;SDS011;2772;42.700;23.304;2022-12-05T03:29:49;9.70;;;6.40;;
5499;SDS011;2772;42.700;23.304;2022-12-05T03:32:21;9.40;;;7.07;;
5499;SDS011;2772;42.700;23.304;2022-12-05T03:35:00;18.93;;;9.00;;
5499;SDS011;2772;42.700;23.304;2022-12-05T03:37:34;12.70;;;8.40;;
5499;SDS011;2772;42.700;23.304;2022-12-05T03:40:12;9.40;;;6.90;;
5499;SDS011;2772;42.700;23.304;2022-12-05T03:42:49;11.87;;;6.80;;
5499;SDS011;2772;42.700;23.304;2022-12-05T03:45:22;11.80;;;6.47;;
5499;SDS011;2772;42.700;23.304;2022-12-05T03:47:56;10.27;;;6.00;;
5499;SDS011;2772;42.700;23.304;2022-12-05T03:50:32;9.33;;;6.90;;
5499;SDS011;2772;42.700;23.304;2022-12-05T03:53:03;9.07;;;6.27;;
5499;SDS011;2772;42.700;23.304;2022-12-05T03:55:34;11.93;;;6.60;;
5499;SDS011;2772;42.700;23.304;2022-12-05T03:58:05;12.97;;;7.30;;
5499;SDS011;2772;42.700;23.304;2022-12-05T04:00:35;11.23;;;6.77;;
5499;SDS011;2772;42.700;23.304;2022-12-05T04:03:06;10.33;;;7.20;;
5499;SDS011;2772;42.700;23.304;2022-12-05T04:05:39;14.80;;;7.30;;
5499;SDS011;2772;42.700;23.304;2022-12-05T04:08:11;10.70;;;7.00;;
5499;SDS011;2772;42.700;23.304;2022-12-05T04:10:42;9.87;;;7.00;;
5499;SDS011;2772;42.700;23.304;2022-12-05T04:13:15;11.50;;;6.90;;
5499;SDS011;2772;42.700;23.304;2022-12-05T04:15:48;13.80;;;7.03;;
5499;SDS011;2772;42.700;23.304;2022-12-05T04:18:36;12.30;;;7.23;;
5499;SDS011;2772;42.700;23.304;2022-12-05T04:21:10;16.40;;;6.97;;
5499;SDS011;2772;42.700;23.304;2022-12-05T04:23:55;11.03;;;6.60;;
5499;SDS011;2772;42.700;23.304;2022-12-05T04:26:41;14.03;;;7.57;;
5499;SDS011;2772;42.700;23.304;2022-12-05T04:29:14;14.13;;;7.83;;
5499;SDS011;2772;42.700;23.304;2022-12-05T04:31:48;11.80;;;7.50;;
5499;SDS011;2772;42.700;23.304;2022-12-05T04:34:22;9.80;;;6.83;;
5499;SDS011;2772;42.700;23.304;2022-12-05T04:36:54;19.83;;;7.80;;
5499;SDS011;2772;42.700;23.304;2022-12-05T04:39:26;12.57;;;7.73;;
5499;SDS011;2772;42.700;23.304;2022-12-05T04:41:57;10.50;;;7.43;;
5499;SDS011;2772;42.700;23.304;2022-12-05T04:44:28;9.53;;;6.03;;
5499;SDS011;2772;42.700;23.304;2022-12-05T04:46:59;15.90;;;8.20;;
5499;SDS011;2772;42.700;23.304;2022-12-05T04:49:28;14.73;;;8.40;;
5499;SDS011;2772;42.700;23.304;2022-12-05T04:51:59;13.40;;;7.70;;
5499;SDS011;2772;42.700;23.304;2022-12-05T04:54:29;17.27;;;8.73;;
5499;SDS011;2772;42.700;23.304;2022-12-05T04:57:03;15.57;;;7.63;;
5499;SDS011;2772;42.700;23.304;2022-12-05T04:59:35;16.73;;;7.80;;
5499;SDS011;2772;42.700;23.304;2022-12-05T05:02:02;16.77;;;8.50;;
5499;SDS011;2772;42.700;23.304;2022-12-05T05:04:33;17.87;;;8.77;;
5499;SDS011;2772;42.700;23.304;2022-12-05T05:07:05;24.33;;;9.07;;
5499;SDS011;2772;42.700;23.304;2022-12-05T05:09:33;15.90;;;8.00;;
5499;SDS011;2772;42.700;23.304;2022-12-05T05:12:00;14.90;;;8.37;;
5499;SDS011;2772;42.700;23.304;2022-12-05T05:14:27;13.77;;;7.83;;
5499;SDS011;2772;42.700;23.304;2022-12-05T05:16:53;11.17;;;6.93;;
5499;SDS011;2772;42.700;23.304;2022-12-05T05:19:20;24.63;;;7.77;;
5499;SDS011;2772;42.700;23.304;2022-12-05T05:21:48;15.53;;;7.40;;
5499;SDS011;2772;42.700;23.304;2022-12-05T05:24:16;13.23;;;8.10;;
5499;SDS011;2772;42.700;23.304;2022-12-05T05:26:45;18.33;;;8.30;;
5499;SDS011;2772;42.700;23.304;2022-12-05T05:29:12;29.43;;;11.20;;
5499;SDS011;2772;42.700;23.304;2022-12-05T05:31:40;15.57;;;9.67;;
5499;SDS011;2772;42.700;23.304;2022-12-05T05:34:07;24.63;;;10.40;;
5499;SDS011;2772;42.700;23.304;2022-12-05T05:36:35;17.17;;;8.90;;
5499;SDS011;2772;42.700;23.304;2022-12-05T05:39:02;29.43;;;10.40;;
5499;SDS011;2772;42.700;23.304;2022-12-05T05:41:32;13.60;;;8.43;;
5499;SDS011;2772;42.700;23.304;2022-12-05T05:44:01;20.57;;;8.17;;
5499;SDS011;2772;42.700;23.304;2022-12-05T05:46:29;15.30;;;8.40;;
5499;SDS011;2772;42.700;23.304;2022-12-05T05:48:57;17.87;;;9.03;;
5499;SDS011;2772;42.700;23.304;2022-12-05T05:51:24;16.60;;;7.70;;
5499;SDS011;2772;42.700;23.304;2022-12-05T05:53:53;21.80;;;7.27;;
5499;SDS011;2772;42.700;23.304;2022-12-05T05:56:20;13.40;;;7.50;;
5499;SDS011;2772;42.700;23.304;2022-12-05T05:58:53;9.20;;;6.47;;
5499;SDS011;2772;42.700;23.304;2022-12-05T06:01:21;12.23;;;7.47;;
5499;SDS011;2772;42.700;23.304;2022-12-05T06:03:48;15.13;;;7.97;;
5499;SDS011;2772;42.700;23.304;2022-12-05T06:06:15;16.60;;;8.47;;
5499;SDS011;2772;42.700;23.304;2022-12-05T06:08:43;17.43;;;8.10;;
5499;SDS011;2772;42.700;23.304;2022-12-05T06:11:11;22.57;;;8.40;;
5499;SDS011;2772;42.700;23.304;2022-12-05T06:13:40;19.37;;;8.53;;
5499;SDS011;2772;42.700;23.304;2022-12-05T06:16:09;38.73;;;16.63;;
5499;SDS011;2772;42.700;23.304;2022-12-05T06:18:38;32.90;;;13.03;;
5499;SDS011;2772;42.700;23.304;2022-12-05T06:21:05;13.07;;;8.60;;
5499;SDS011;2772;42.700;23.304;2022-12-05T06:23:33;12.40;;;7.93;;
5499;SDS011;2772;42.700;23.304;2022-12-05T06:26:00;12.17;;;8.13;;
5499;SDS011;2772;42.700;23.304;2022-12-05T06:28:27;14.83;;;8.50;;
5499;SDS011;2772;42.700;23.304;2022-12-05T06:30:54;18.30;;;8.77;;
5499;SDS011;2772;42.700;23.304;2022-12-05T06:33:22;25.33;;;11.20;;
5499;SDS011;2772;42.700;23.304;2022-12-05T06:35:59;19.73;;;9.60;;
5499;SDS011;2772;42.700;23.304;2022-12-05T06:38:27;17.90;;;9.00;;
5499;SDS011;2772;42.700;23.304;2022-12-05T06:40:54;21.30;;;9.40;;
5499;SDS011;2772;42.700;23.304;2022-12-05T06:43:20;24.13;;;9.57;;
5499;SDS011;2772;42.700;23.304;2022-12-05T06:45:47;14.10;;;8.90;;
5499;SDS011;2772;42.700;23.304;2022-12-05T06:48:14;14.13;;;7.60;;
5499;SDS011;2772;42.700;23.304;2022-12-05T06:50:47;14.87;;;8.00;;
5499;SDS011;2772;42.700;23.304;2022-12-05T06:53:15;19.87;;;8.43;;
5499;SDS011;2772;42.700;23.304;2022-12-05T06:55:41;11.80;;;7.80;;
5499;SDS011;2772;42.700;23.304;2022-12-05T06:58:08;16.13;;;8.30;;
5499;SDS011;2772;42.700;23.304;2022-12-05T07:00:35;16.30;;;7.37;;
5499;SDS011;2772;42.700;23.304;2022-12-05T07:03:19;12.30;;;7.47;;
5499;SDS011;2772;42.700;23.304;2022-12-05T07:05:45;12.43;;;8.50;;
5499;SDS011;2772;42.700;23.304;2022-12-05T07:08:14;22.83;;;8.87;;
5499;SDS011;2772;42.700;23.304;2022-12-05T07:10:40;17.83;;;8.47;;
5499;SDS011;2772;42.700;23.304;2022-12-05T07:13:07;13.93;;;7.00;;
5499;SDS011;2772;42.700;23.304;2022-12-05T07:15:36;23.80;;;12.07;;
5499;SDS011;2772;42.700;23.304;2022-12-05T07:18:02;23.63;;;12.17;;
5499;SDS011;2772;42.700;23.304;2022-12-05T07:20:29;20.67;;;8.63;;
5499;SDS011;2772;42.700;23.304;2022-12-05T07:22:57;13.50;;;8.37;;
5499;SDS011;2772;42.700;23.304;2022-12-05T07:25:24;19.27;;;9.07;;
5499;SDS011;2772;42.700;23.304;2022-12-05T07:27:51;19.07;;;8.40;;
5499;SDS011;2772;42.700;23.304;2022-12-05T07:30:18;18.00;;;8.17;;
5499;SDS011;2772;42.700;23.304;2022-12-05T07:32:45;13.60;;;7.53;;
5499;SDS011;2772;42.700;23.304;2022-12-05T07:35:15;22.27;;;9.17;;
5499;SDS011;2772;42.700;23.304;2022-12-05T07:37:41;25.53;;;9.40;;
5499;SDS011;2772;42.700;23.304;2022-12-05T07:40:10;18.73;;;9.50;;
5499;SDS011;2772;42.700;23.304;2022-12-05T07:42:38;12.43;;;7.50;;
5499;SDS011;2772;42.700;23.304;2022-12-05T07:45:05;15.47;;;9.40;;
5499;SDS011;2772;42.700;23.304;2022-12-05T07:47:33;16.53;;;9.27;;
5499;SDS011;2772;42.700;23.304;2022-12-05T07:50:00;19.03;;;9.40;;
5499;SDS011;2772;42.700;23.304;2022-12-05T07:52:26;13.73;;;8.50;;
5499;SDS011;2772;42.700;23.304;2022-12-05T07:54:53;15.57;;;9.03;;
5499;SDS011;2772;42.700;23.304;2022-12-05T07:57:22;20.50;;;9.90;;
5499;SDS011;2772;42.700;23.304;2022-12-05T07:59:48;13.17;;;8.30;;
5499;SDS011;2772;42.700;23.304;2022-12-05T08:02:15;20.00;;;10.30;;
5499;SDS011;2772;42.700;23.304;2022-12-05T08:04:42;16.83;;;9.10;;
5499;SDS011;2772;42.700;23.304;2022-12-05T08:07:09;19.87;;;9.40;;
5499;SDS011;2772;42.700;23.304;2022-12-05T08:09:36;12.30;;;8.67;;
5499;SDS011;2772;42.700;23.304;2022-12-05T08:12:02;15.17;;;9.80;;
5499;SDS011;2772;42.700;23.304;2022-12-05T08:14:31;14.47;;;9.90;;
5499;SDS011;2772;42.700;23.304;2022-12-05T08:16:58;24.20;;;12.97;;
5499;SDS011;2772;42.700;23.304;2022-12-05T08:19:25;22.10;;;10.93;;
5499;SDS011;2772;42.700;23.304;2022-12-05T08:21:52;18.40;;;10.13;;
5499;SDS011;2772;42.700;23.304;2022-12-05T08:24:19;17.70;;;11.10;;
5499;SDS011;2772;42.700;23.304;2022-12-05T08:26:46;18.87;;;12.30;;
5499;SDS011;2772;42.700;23.304;2022-12-05T08:29:13;24.70;;;15.23;;
5499;SDS011;2772;42.700;23.304;2022-12-05T08:31:42;19.70;;;12.47;;
5499;SDS011;2772;42.700;23.304;2022-12-05T08:34:12;16.83;;;11.80;;
5499;SDS011;2772;42.700;23.304;2022-12-05T08:36:39;20.63;;;11.90;;
5499;SDS011;2772;42.700;23.304;2022-12-05T08:39:07;21.10;;;11.17;;
5499;SDS011;2772;42.700;23.304;2022-12-05T08:41:36;18.33;;;10.10;;
5499;SDS011;2772;42.700;23.304;2022-12-05T08:44:04;21.07;;;11.17;;
5499;SDS011;2772;42.700;23.304;2022-12-05T08:46:33;18.63;;;9.97;;
5499;SDS011;2772;42.700;23.304;2022-12-05T08:49:03;16.43;;;9.13;;
5499;SDS011;2772;42.700;23.304;2022-12-05T08:51:30;13.07;;;7.83;;
5499;SDS011;2772;42.700;23.304;2022-12-05T08:53:57;12.87;;;8.37;;
5499;SDS011;2772;42.700;23.304;2022-12-05T08:56:24;12.50;;;8.00;;
5499;SDS011;2772;42.700;23.304;2022-12-05T08:58:51;12.47;;;7.93;;
5499;SDS011;2772;42.700;23.304;2022-12-05T09:01:18;17.80;;;11.33;;
5499;SDS011;2772;42.700;23.304;2022-12-05T09:03:46;14.47;;;9.23;;
5499;SDS011;2772;42.700;23.304;2022-12-05T09:06:15;16.00;;;9.20;;
5499;SDS011;2772;42.700;23.304;2022-12-05T09:08:43;13.93;;;8.50;;
5499;SDS011;2772;42.700;23.304;2022-12-05T09:11:11;14.43;;;9.27;;
5499;SDS011;2772;42.700;23.304;2022-12-05T09:13:40;18.83;;;8.70;;
5499;SDS011;2772;42.700;23.304;2022-12-05T09:16:10;12.73;;;7.90;;
5499;SDS011;2772;42.700;23.304;2022-12-05T09:18:38;20.00;;;8.17;;
5499;SDS011;2772;42.700;23.304;2022-12-05T09:21:05;13.80;;;7.90;;
5499;SDS011;2772;42.700;23.304;2022-12-05T09:23:34;8.73;;;6.47;;
5499;SDS011;2772;42.700;23.304;2022-12-05T09:26:01;13.93;;;6.77;;
5499;SDS011;2772;42.700;23.304;2022-12-05T09:28:29;8.90;;;6.30;;
5499;SDS011;2772;42.700;23.304;2022-12-05T09:30:56;8.53;;;6.20;;
5499;SDS011;2772;42.700;23.304;2022-12-05T09:33:25;8.90;;;6.57;;
5499;SDS011;2772;42.700;23.304;2022-12-05T09:35:52;6.50;;;5.90;;
5499;SDS011;2772;42.700;23.304;2022-12-05T09:38:19;10.17;;;6.53;;
5499;SDS011;2772;42.700;23.304;2022-12-05T09:40:48;9.53;;;7.03;;
5499;SDS011;2772;42.700;23.304;2022-12-05T09:43:28;11.70;;;8.50;;
5499;SDS011;2772;42.700;23.304;2022-12-05T09:46:03;15.53;;;9.10;;
5499;SDS011;2772;42.700;23.304;2022-12-05T09:48:38;7.93;;;6.67;;
5499;SDS011;2772;42.700;23.304;2022-12-05T09:51:06;14.03;;;7.33;;
5499;SDS011;2772;42.700;23.304;2022-12-05T09:53:35;10.60;;;6.70;;
5499;SDS011;2772;42.700;23.304;2022-12-05T09:56:10;10.67;;;6.70;;
5499;SDS011;2772;42.700;23.304;2022-12-05T09:58:43;9.63;;;6.17;;
5499;SDS011;2772;42.700;23.304;2022-12-05T10:01:18;13.30;;;7.80;;
5499;SDS011;2772;42.700;23.304;2022-12-05T10:04:00;10.13;;;6.97;;
5499;SDS011;2772;42.700;23.304;2022-12-05T10:06:38;15.10;;;7.93;;
5499;SDS011;2772;42.700;23.304;2022-12-05T10:09:17;14.23;;;7.50;;
5499;SDS011;2772;42.700;23.304;2022-12-05T10:11:58;17.90;;;8.33;;
5499;SDS011;2772;42.700;23.304;2022-12-05T10:14:36;21.77;;;9.03;;
5499;SDS011;2772;42.700;23.304;2022-12-05T10:17:14;12.53;;;6.87;;
5499;SDS011;2772;42.700;23.304;2022-12-05T10:19:49;10.43;;;7.50;;
5499;SDS011;2772;42.700;23.304;2022-12-05T10:22:21;9.87;;;5.90;;
5499;SDS011;2772;42.700;23.304;2022-12-05T10:24:54;10.03;;;6.13;;
5499;SDS011;2772;42.700;23.304;2022-12-05T10:27:28;10.67;;;6.03;;
5499;SDS011;2772;42.700;23.304;2022-12-05T10:30:00;11.43;;;6.70;;
5499;SDS011;2772;42.700;23.304;2022-12-05T10:32:32;10.17;;;7.83;;
5499;SDS011;2772;42.700;23.304;2022-12-05T10:35:13;7.30;;;5.90;;
5499;SDS011;2772;42.700;23.304;2022-12-05T10:37:43;13.03;;;8.20;;
5499;SDS011;2772;42.700;23.304;2022-12-05T10:40:13;12.40;;;7.68;;
5499;SDS011;2772;42.700;23.304;2022-12-05T10:42:44;16.77;;;7.80;;
5499;SDS011;2772;42.700;23.304;2022-12-05T10:45:13;16.70;;;10.43;;
5499;SDS011;2772;42.700;23.304;2022-12-05T10:47:43;9.90;;;7.90;;
5499;SDS011;2772;42.700;23.304;2022-12-05T10:50:18;10.30;;;6.57;;
5499;SDS011;2772;42.700;23.304;2022-12-05T10:52:49;10.60;;;7.23;;
5499;SDS011;2772;42.700;23.304;2022-12-05T10:55:17;9.90;;;7.20;;
5499;SDS011;2772;42.700;23.304;2022-12-05T10:57:48;18.00;;;10.13;;
5499;SDS011;2772;42.700;23.304;2022-12-05T11:00:19;16.37;;;9.20;;
5499;SDS011;2772;42.700;23.304;2022-12-05T11:02:47;15.03;;;9.53;;
5499;SDS011;2772;42.700;23.304;2022-12-05T11:05:16;11.50;;;6.67;;
5499;SDS011;2772;42.700;23.304;2022-12-05T11:07:53;15.53;;;8.90;;
5499;SDS011;2772;42.700;23.304;2022-12-05T11:10:25;17.10;;;7.00;;
5499;SDS011;2772;42.700;23.304;2022-12-05T11:12:56;12.63;;;7.37;;
5499;SDS011;2772;42.700;23.304;2022-12-05T11:15:24;16.80;;;8.60;;
5499;SDS011;2772;42.700;23.304;2022-12-05T11:17:53;11.90;;;8.53;;
5499;SDS011;2772;42.700;23.304;2022-12-05T11:20:32;14.23;;;9.13;;
5499;SDS011;2772;42.700;23.304;2022-12-05T11:23:15;14.37;;;8.97;;
5499;SDS011;2772;42.700;23.304;2022-12-05T11:25:47;10.13;;;8.23;;
5499;SDS011;2772;42.700;23.304;2022-12-05T11:28:28;17.00;;;10.30;;
5499;SDS011;2772;42.700;23.304;2022-12-05T11:31:00;16.03;;;8.03;;
5499;SDS011;2772;42.700;23.304;2022-12-05T11:33:29;12.10;;;7.90;;
5499;SDS011;2772;42.700;23.304;2022-12-05T11:35:58;15.53;;;8.80;;
5499;SDS011;2772;42.700;23.304;2022-12-05T11:38:29;13.67;;;8.80;;
5499;SDS011;2772;42.700;23.304;2022-12-05T11:41:01;16.03;;;9.73;;
5499;SDS011;2772;42.700;23.304;2022-12-05T11:43:50;14.87;;;8.40;;
5499;SDS011;2772;42.700;23.304;2022-12-05T11:46:27;15.20;;;9.53;;
5499;SDS011;2772;42.700;23.304;2022-12-05T11:49:10;16.27;;;8.90;;
5499;SDS011;2772;42.700;23.304;2022-12-05T11:51:49;14.50;;;8.60;;
5499;SDS011;2772;42.700;23.304;2022-12-05T11:57:22;10.13;;;7.53;;
5499;SDS011;2772;42.700;23.304;2022-12-05T12:00:06;11.00;;;7.50;;
5499;SDS011;2772;42.700;23.304;2022-12-05T12:05:36;11.90;;;8.40;;
5499;SDS011;2772;42.700;23.304;2022-12-05T12:08:09;14.20;;;8.70;;
5499;SDS011;2772;42.700;23.304;2022-12-05T12:10:47;13.30;;;8.70;;
5499;SDS011;2772;42.700;23.304;2022-12-05T12:13:28;11.17;;;8.03;;
5499;SDS011;2772;42.700;23.304;2022-12-05T12:16:11;13.93;;;8.97;;
5499;SDS011;2772;42.700;23.304;2022-12-05T12:21:45;11.70;;;8.47;;
5499;SDS011;2772;42.700;23.304;2022-12-05T12:24:26;13.23;;;8.13;;
5499;SDS011;2772;42.700;23.304;2022-12-05T12:27:04;11.90;;;8.57;;
5499;SDS011;2772;42.700;23.304;2022-12-05T12:29:45;13.47;;;8.87;;
5499;SDS011;2772;42.700;23.304;2022-12-05T12:32:33;11.00;;;7.97;;
5499;SDS011;2772;42.700;23.304;2022-12-05T12:35:21;15.90;;;9.13;;
5499;SDS011;2772;42.700;23.304;2022-12-05T12:40:54;15.30;;;9.10;;
5499;SDS011;2772;42.700;23.304;2022-12-05T12:43:34;14.73;;;9.67;;
5499;SDS011;2772;42.700;23.304;2022-12-05T12:46:13;21.67;;;10.03;;
5499;SDS011;2772;42.700;23.304;2022-12-05T12:48:56;20.47;;;10.90;;
5499;SDS011;2772;42.700;23.304;2022-12-05T12:51:32;17.03;;;10.33;;
5499;SDS011;2772;42.700;23.304;2022-12-05T12:54:04;23.30;;;14.27;;
5499;SDS011;2772;42.700;23.304;2022-12-05T12:56:48;17.90;;;10.40;;
5499;SDS011;2772;42.700;23.304;2022-12-05T12:59:28;18.20;;;10.57;;
5499;SDS011;2772;42.700;23.304;2022-12-05T13:02:10;15.20;;;9.57;;
5499;SDS011;2772;42.700;23.304;2022-12-05T13:04:45;18.30;;;10.47;;
5499;SDS011;2772;42.700;23.304;2022-12-05T13:07:18;25.27;;;11.73;;
5499;SDS011;2772;42.700;23.304;2022-12-05T13:09:51;22.60;;;11.00;;
5499;SDS011;2772;42.700;23.304;2022-12-05T13:12:23;25.13;;;11.47;;
5499;SDS011;2772;42.700;23.304;2022-12-05T13:14:54;18.87;;;11.20;;
5499;SDS011;2772;42.700;23.304;2022-12-05T13:17:25;22.90;;;10.83;;
5499;SDS011;2772;42.700;23.304;2022-12-05T13:19:54;17.23;;;10.80;;
5499;SDS011;2772;42.700;23.304;2022-12-05T13:22:22;20.90;;;11.10;;
5499;SDS011;2772;42.700;23.304;2022-12-05T13:24:52;17.57;;;11.00;;
5499;SDS011;2772;42.700;23.304;2022-12-05T13:27:21;21.90;;;11.13;;
5499;SDS011;2772;42.700;23.304;2022-12-05T13:29:50;21.60;;;12.03;;
5499;SDS011;2772;42.700;23.304;2022-12-05T13:35:08;25.83;;;11.80;;
5499;SDS011;2772;42.700;23.304;2022-12-05T13:37:42;24.03;;;12.50;;
5499;SDS011;2772;42.700;23.304;2022-12-05T13:40:29;25.03;;;12.30;;
5499;SDS011;2772;42.700;23.304;2022-12-05T13:43:16;23.33;;;11.40;;
5499;SDS011;2772;42.700;23.304;2022-12-05T13:45:53;25.87;;;12.00;;
5499;SDS011;2772;42.700;23.304;2022-12-05T13:48:26;20.13;;;10.67;;
5499;SDS011;2772;42.700;23.304;2022-12-05T13:50:57;26.27;;;11.10;;
5499;SDS011;2772;42.700;23.304;2022-12-05T13:53:30;21.60;;;11.63;;
5499;SDS011;2772;42.700;23.304;2022-12-05T13:56:03;24.23;;;11.60;;
5499;SDS011;2772;42.700;23.304;2022-12-05T14:01:43;26.43;;;11.60;;
5499;SDS011;2772;42.700;23.304;2022-12-05T14:04:23;20.83;;;11.83;;
5499;SDS011;2772;42.700;23.304;2022-12-05T14:07:08;26.53;;;12.23;;
5499;SDS011;2772;42.700;23.304;2022-12-05T14:15:25;29.90;;;13.93;;
5499;SDS011;2772;42.700;23.304;2022-12-05T14:17:59;25.30;;;14.60;;
5499;SDS011;2772;42.700;23.304;2022-12-05T14:20:30;38.53;;;16.60;;
5499;SDS011;2772;42.700;23.304;2022-12-05T14:23:13;26.80;;;14.50;;
5499;SDS011;2772;42.700;23.304;2022-12-05T14:25:50;33.10;;;16.27;;
5499;SDS011;2772;42.700;23.304;2022-12-05T14:28:46;27.50;;;14.77;;
5499;SDS011;2772;42.700;23.304;2022-12-05T14:31:31;25.63;;;14.17;;
5499;SDS011;2772;42.700;23.304;2022-12-05T14:34:19;24.90;;;13.27;;
5499;SDS011;2772;42.700;23.304;2022-12-05T14:36:56;28.03;;;13.03;;
5499;SDS011;2772;42.700;23.304;2022-12-05T14:39:37;26.00;;;14.77;;
5499;SDS011;2772;42.700;23.304;2022-12-05T14:42:18;29.90;;;13.30;;
5499;SDS011;2772;42.700;23.304;2022-12-05T14:44:48;27.07;;;15.37;;
5499;SDS011;2772;42.700;23.304;2022-12-05T14:47:18;34.27;;;15.67;;
5499;SDS011;2772;42.700;23.304;2022-12-05T14:49:52;29.30;;;15.37;;
5499;SDS011;2772;42.700;23.304;2022-12-05T14:52:25;31.70;;;14.77;;
5499;SDS011;2772;42.700;23.304;2022-12-05T14:54:57;29.57;;;14.97;;
5499;SDS011;2772;42.700;23.304;2022-12-05T14:57:28;40.53;;;14.97;;
5499;SDS011;2772;42.700;23.304;2022-12-05T14:59:58;34.07;;;16.13;;
5499;SDS011;2772;42.700;23.304;2022-12-05T15:02:31;34.27;;;18.20;;
5499;SDS011;2772;42.700;23.304;2022-12-05T15:05:02;34.37;;;18.20;;
5499;SDS011;2772;42.700;23.304;2022-12-05T15:07:39;29.43;;;16.50;;
5499;SDS011;2772;42.700;23.304;2022-12-05T15:10:12;33.80;;;16.73;;
5499;SDS011;2772;42.700;23.304;2022-12-05T15:12:44;28.93;;;13.97;;
5499;SDS011;2772;42.700;23.304;2022-12-05T15:15:14;33.33;;;12.90;;
5499;SDS011;2772;42.700;23.304;2022-12-05T15:17:47;27.23;;;13.30;;
5499;SDS011;2772;42.700;23.304;2022-12-05T15:20:29;30.90;;;15.43;;
5499;SDS011;2772;42.700;23.304;2022-12-05T15:23:08;25.67;;;13.27;;
5499;SDS011;2772;42.700;23.304;2022-12-05T15:28:56;24.13;;;11.87;;
5499;SDS011;2772;42.700;23.304;2022-12-05T15:31:25;23.83;;;13.00;;
5499;SDS011;2772;42.700;23.304;2022-12-05T15:33:54;28.23;;;13.83;;
5499;SDS011;2772;42.700;23.304;2022-12-05T15:36:25;35.70;;;14.40;;
5499;SDS011;2772;42.700;23.304;2022-12-05T15:39:01;46.87;;;21.90;;
5499;SDS011;2772;42.700;23.304;2022-12-05T15:41:31;39.80;;;22.20;;
5499;SDS011;2772;42.700;23.304;2022-12-05T15:44:00;32.93;;;17.40;;
5499;SDS011;2772;42.700;23.304;2022-12-05T15:46:30;25.27;;;13.33;;